In Rescue
 
Open Full Screen Window  High Contrast Mode
Wind Gusting 00 knots
05
November 29, 2022 9:37 AM CST
Weather Information
Wind Direction
  290 °
Wind Speed
  05 kt (6 mph)
Wind Gust
  00 kt (0 mph)
Altimeter
29.73 in
Visibility
10 SM
Temperature
-06° C
21° F
Dewpoint
-10° C
14° F
Humidity
74%
1hr Rain Fall
00.00 in.
24hr Rain Fall
00.00 in.
Sky Condition
Clear
VFR

METAR KPWC 291537Z AUTO 29005KT 10SM CLR M06/M10 A2973 RMK AO2

FAA Disclaimer: The data displayed is for advisory purposes only and is not to be used for flight planning or operations.